NCAR-RAP Real-Time Weather Data

Output produced by METARs form (23 January 2018  15:44 UTC)
found at http://weather.rap.ucar.edu/surface/
 
ROAH 231530Z 03008KT 9999 FEW030 BKN070 17/12 Q1017
ROAH 231500Z 04008KT 9999 FEW030 BKN070 17/12 Q1017
ROAH 231430Z 04009KT 9999 FEW030 SCT100 17/12 Q1017
ROAH 231400Z 05008KT 9999 FEW030 SCT050 17/12 Q1017
ROAH 231330Z 04008KT 9999 FEW030 BKN080 17/11 Q1017
ROAH 231300Z 03008KT 9999 FEW030 BKN080 17/11 Q1017
ROAH 231230Z 04008KT 010V080 9999 FEW030 BKN090 17/11 Q1017
ROAH 231200Z 05008KT 9999 FEW030 BKN090 17/11 Q1017
ROAH 231130Z 04007KT 350V060 9999 FEW030 17/11 Q1017
ROAH 231100Z 04007KT 9999 FEW030 SCT080 17/11 Q1017
ROAH 231030Z 05008KT 020V120 9999 FEW030 BKN080 17/11 Q1016
ROAH 231000Z VRB05KT 9999 FEW030 SCT045 BKN070 18/11 Q1016
ROAH 230930Z 04009KT 010V070 9999 -RA FEW030 BKN045 18/11 Q1016 RMK 1SC030 6SC045 A3001
ROAH 230900Z 03010KT 9999 VCSH FEW035 BKN045 18/11 Q1016 RMK 1SC035 6SC045 A3000
ROAH 230830Z 04007KT 9999 FEW035 BKN045 19/10 Q1015 RMK 1SC035 6SC045 A3000
ROAH 230800Z 03008KT 360V070 9999 FEW035 BKN045 19/11 Q1015 RMK 1SC035 7SC045 A2999
ROAH 230730Z 06006KT 020V130 9999 BKN045 19/11 Q1015 RMK 7SC045 A2998
ROAH 230700Z 05007KT 360V100 9999 BKN040 19/10 Q1015 RMK 7SC040 A2998
ROAH 230630Z 05007KT 360V090 9999 BKN040 19/11 Q1014 RMK 7SC040 A2997
ROAH 230600Z 05007KT 360V100 9999 BKN045 19/11 Q1014 RMK 7SC045 A2996
ROAH 230530Z 06008KT 360V110 9999 BKN045 19/11 Q1014 RMK 7SC045 A2997
ROAH 230500Z 06008KT 040V110 9999 BKN045 20/11 Q1014 RMK 7SC045 A2996
ROAH 230430Z 06009KT 9999 BKN045 19/10 Q1015 RMK 7SC045 A2997
ROAH 230400Z 07009KT 040V120 9999 BKN045 20/10 Q1015 RMK 7SC045 A2998
ROAH 230330Z 07008KT 030V130 9999 BKN045 20/10 Q1015 RMK 7SC045 A2999
ROAH 230300Z 08009KT 050V110 9999 FEW045 BKN060 20/10 Q1015 RMK 2SC045 7SC060 A3000
ROAH 230230Z 07009KT 040V110 CAVOK 20/10 Q1016 RMK 6SC060 A3001
ROAH 230200Z 07011KT 030V100 CAVOK 20/10 Q1016 RMK 5SC060 A3002
ROAH 230130Z 06010KT 9999 FEW045 SCT060 20/09 Q1016 RMK 1SC045 4SC060 A3002
ROAH 230100Z 04009KT 360V070 9999 FEW045 BKN050 18/09 Q1017 RMK 1SC045 6SC050 A3004
ROAH 230030Z 05009KT 020V090 CAVOK 18/08 Q1017 RMK A3004
ROAH 230000Z 04009KT CAVOK 18/08 Q1017 RMK A3003
ROAH 222330Z 06008KT CAVOK 18/08 Q1016 RMK A3003
ROAH 222300Z 05008KT CAVOK 18/08 Q1016 RMK 6SC050 A3003
ROAH 222230Z 05007KT 020V090 CAVOK 17/08 Q1016 RMK 6SC050 A3002
ROAH 222200Z 04009KT CAVOK 17/09 Q1016 RMK 6SC050 A3002
ROAH 222130Z 04008KT CAVOK 17/09 Q1016 RMK 6SC050 A3001
ROAH 222100Z 03009KT CAVOK 17/09 Q1015 RMK A3000
ROAH 222030Z 03010KT CAVOK 17/10 Q1015 RMK A2999
ROAH 222000Z 03009KT CAVOK 17/10 Q1015 RMK A2999
ROAH 221930Z 03008KT 9999 FEW045 BKN050 17/09 Q1015 RMK 1SC045 6SC050 A2999
ROAH 221900Z 04009KT 9999 FEW045 BKN050 17/09 Q1015 RMK 1SC045 5SC050 A2999
ROAH 221830Z 05007KT 9999 FEW045 SCT/// 17/09 Q1015
ROAH 221800Z 05005KT 9999 FEW045 BKN/// 17/09 Q1015
ROAH 221730Z 04007KT 9999 FEW045 BKN/// 17/09 Q1015
ROAH 221700Z 03009KT 9999 FEW045 BKN/// 18/09 Q1015
ROAH 221630Z 03009KT 9999 FEW045 BKN/// 18/10 Q1015
ROAH 221600Z 03007KT 9999 BKN045 BKN/// 18/09 Q1016
ROAH 221530Z 03006KT 9999 BKN040 BKN/// 18/10 Q1016
ROAH 221500Z 04006KT 9999 BKN040 BKN/// 18/10 Q1016 RMK 6SC040 A3000
ROAH 221430Z 03008KT 010V070 9999 BKN040 BKN/// 18/10 Q1015
ROAH 221400Z 03006KT 9999 BKN045 BKN/// 18/10 Q1016
ROAH 221330Z 05005KT 9999 SCT045 BKN/// 18/10 Q1016
ROAH 221300Z 05006KT 9999 FEW030 BKN040 18/10 Q1016 RMK 1CU030 7SC040 A3000
ROAH 221230Z 05008KT 020V080 9999 FEW030 SCT040 BKN160 18/09 Q1015 RMK 1CU030 3SC040 7AC160 A3000
ROAH 221200Z 05009KT 9999 FEW030 BKN035 BKN160 18/10 Q1015 RMK 1CU030 5SC035 7AC160 A2999
ROAH 221130Z 04012KT 9999 FEW030 BKN160 18/10 Q1015 RMK 2CU030 7AC160 A2998
ROAH 221100Z 04009KT 320V090 9999 FEW030 SCT040 BKN160 18/10 Q1014 RMK 1CU030 3SC040 5AC160 A2997
ROAH 221030Z 02014KT 350V050 9999 FEW030 SCT040 BKN140 18/10 Q1014 RMK 1CU030 3SC040 6AC140 A2996 MOD TURB OBS AT 1016Z CRUXS BTN FL180 AND 13000FT B738
ROAH 221000Z 02015KT 9999 FEW030 SCT040 BKN140 18/11 Q1014 RMK 1CU030 3SC040 6AC140 A2995
ROAH 220930Z 02015KT 9999 FEW030 SCT040 BKN130 19/11 Q1013 RMK 1CU030 3SC040 5AC130 A2994
ROAH 220900Z 03014KT 350V080 9999 FEW028 SCT040 BKN130 19/11 Q1013 RMK 1CU028 3SC040 5AC130 A2992
ROAH 220830Z 03011KT 340V080 9999 SCT028 SCT040 BKN130 19/12 Q1013 RMK 3CU028 4SC040 5AC130 A2993 P/RR
ROAH 220800Z 01018KT 9999 FEW028 SCT040 BKN130 19/12 Q1012 RMK 2CU028 3SC040 5AC130 A2990
ROAH 220730Z 01019KT 9999 FEW025 SCT030 BKN120 19/13 Q1012 RMK 1CU025 3CU030 6AC120 A2989
ROAH 220700Z 36018KT 9999 FEW025 SCT035 BKN120 19/12 Q1012 RMK 2CU025 3CU035 6AC120 A2989
ROAH 220630Z 36019KT 9999 SCT025 BKN120 19/13 Q1011 RMK 3CU025 6AC120 A2987
ROAH 220600Z 36020KT 9999 FEW025 SCT030 BKN120 19/13 Q1011 RMK 1CU025 3CU030 6AC120 A2986
ROAH 220530Z 35018KT 9999 -SHRA SCT025 BKN100 20/14 Q1011 RMK 3CU025 6AC100 A2986
ROAH 220500Z 35018KT 9999 FEW025 BKN100 19/14 Q1011 RMK 2CU025 6AC100 A2986
ROAH 220430Z 35023KT 9999 FEW020 BKN030 BKN090 20/14 Q1011 RMK 2CU020 5CU030 7AC090 A2986
ROAH 220400Z 34021KT 9999 FEW020 BKN025 BKN090 20/15 Q1011 RMK 1CU020 6CU025 7AC090 A2987
ROAH 220330Z 33021KT 9999 VCSH FEW020 BKN025 BKN090 20/15 Q1011 RMK 1CU020 6CU025 7AC090 A2988
ROAH 220300Z 34023KT 9999 -SHRA FEW015 SCT020 BKN060 20/16 Q1012 RMK 1CU015 4CU020 6SC060 A2989
ROAH 220230Z 34023KT 9999 -SHRA FEW010 SCT015 BKN060 20/16 Q1012 RMK 1CU010 4CU015 6SC060 A2990
ROAH 220200Z 33027KT 9999 -SHRA FEW006 BKN012 BKN050 19/17 Q1012 RMK 1ST006 5CU012 6SC050 A2990
ROAH 220149Z 28011G23KT 3000 +SHRA FEW008 BKN012 BKN050 21/19 Q1012 RMK 1ST008 5CU012 6SC050 A2988
ROAH 220139Z 26011KT 220V300 8000 SHRA FEW008 BKN012 BKN050 21/19 Q1011 RMK 1ST008 5CU012 6SC050 A2988
ROAH 220130Z 25010KT 230V310 9999 -SHRA FEW008 BKN015 BKN050 21/19 Q1011 RMK 1ST008 5CU015 6SC050 A2988
ROAH 220100Z 26010KT 9999 -RA FEW008 SCT015 BKN050 21/18 Q1011 RMK 2ST008 3CU015 6SC050 A2987
ROAH 220030Z 29004KT 230V350 9999 -RA FEW005 SCT008 BKN050 20/19 Q1011 RMK 1ST005 4ST008 6SC050 A2986
ROAH 220000Z 35009KT 5000 -SHRA FEW003 SCT005 BKN040 20/19 Q1011 RMK 1ST003 4ST005 6SC040 A2986
ROAH 212343Z 33005KT 4000 SHRA SCT005 SCT015 BKN040 20/19 Q1011 RMK 3ST005 4CU015 7SC040 A2987
ROAH 212330Z 35004KT 320V020 2500 SHRA FEW005 SCT015 BKN040 20/19 Q1011 RMK 2ST005 4CU015 7SC040 A2987
ROAH 212320Z 34004KT 300V020 2000 R36/1000VP1800D +SHRA SCT005 BKN010 BKN040 20/19 Q1011 RMK 3ST005 5CU010 7SC040 A2987
ROAH 212311Z 34009KT 1500 R36/0900VP1800U +SHRA SCT005 BKN010 BKN040 19/18 Q1011 RMK 3ST005 5CU010 7SC040 A2986
ROAH 212307Z 33011KT 1000 R36/0900VP1800D +SHRA SCT005 BKN010 BKN040 20/18 Q1011 RMK 3ST005 5CU010 7SC040 A2987 RI++
ROAH 212300Z 34008KT 310V070 0500 R36/P1800N +SHRA SCT005 BKN010 BKN040 20/18 Q1011 RMK 3ST005 5CU010 7SC040 A2987 MOD TURB OBS AT 2235Z FM 30NM TO 50NM NE NHC BTN FL235 AND FL260 B763 RI++
ROAH 212248Z 04007KT 340V120 2000 SHRA FEW003 BKN010 BKN040 20/18 Q1010 RMK 1ST003 5CU010 7SC040 A2985
ROAH 212238Z 34010KT 1000 R36/P1800N +SHRA SCT005 BKN010 BKN040 20/18 Q1011 RMK 3ST005 5CU010 7SC040 A2985
ROAH 212234Z 34009KT 3000 +SHRA SCT005 BKN010 BKN040 19/18 Q1011 RMK 3ST005 5CU010 7SC040 A2987 RI++
ROAH 212230Z 35008KT 4000 SHRA SCT005 BKN010 BKN040 19/18 Q1011 RMK 3ST005 5CU010 7SC040 A2986
ROAH 212204Z 33007KT 4000 SHRA FEW008 BKN015 BKN040 20/18 Q1011 RMK 1ST008 5CU015 7SC040 A2986
ROAH 212200Z 33008KT 8000 -SHRA FEW008 BKN015 BKN040 20/17 Q1011 RMK 1ST008 5CU015 7SC040 A2986
ROAH 212130Z 13004KT 9999 SHRA FEW015 SCT020 BKN040 21/17 Q1010 RMK 1CU015 3CU020 7SC040 A2984
ROAH 212100Z 14004KT 9999 FEW015 BKN040 20/17 Q1010 RMK 1CU015 7SC040 A2984
ROAH 212030Z 14004KT 9999 FEW015 BKN045 21/17 Q1010 RMK 1CU015 7SC045 A2984
ROAH 212000Z 14005KT 9999 FEW020 BKN050 20/18 Q1010 RMK 1CU020 7SC050 A2984
ROAH 211930Z 13004KT 9999 FEW020 BKN050 20/18 Q1011 RMK 1CU020 7SC050 A2986
ROAH 211900Z 09004KT 050V130 9999 FEW007 BKN050 20/18 Q1011 RMK 1ST007 7SC050 A2986
ROAH 211830Z 10004KT 050V140 9999 -RA FEW007 BKN050 20/18 Q1011 RMK 1ST007 7SC050 A2987
ROAH 211800Z 11005KT 070V140 9999 -RA FEW010 BKN060 20/18 Q1011 RMK 1CU010 7SC060 A2988
ROAH 211730Z 11006KT 9999 FEW010 BKN070 20/18 Q1011 RMK 1CU010 7AC070 A2988
ROAH 211700Z 12007KT 9999 -RA FEW018 SCT040 BKN090 20/17 Q1012 RMK 1CU018 3SC040 7AS090 A2989
ROAH 211650Z 12006KT 9999 RA FEW015 BKN080 20/17 Q1012 RMK 1CU015 7AS080 A2989
ROAH 211630Z 11006KT 070V140 9999 -RA FEW015 BKN080 20/17 Q1012 RMK 1CU015 7AS080 A2990
ROAH 211600Z 11005KT 080V150 9999 -RA FEW015 BKN090 20/17 Q1013 RMK 1CU015 7AS090 A2991
ROAH 211530Z 10006KT 050V140 9999 -RA FEW015 BKN100 20/17 Q1013 RMK 1CU015 7AS100 A2991
ROAH 211500Z 11006KT 9999 -RA FEW017 BKN100 20/17 Q1013 RMK 1CU017 7AC100 A2992
ROAH 211440Z 10006KT 060V120 9999 -RA FEW017 BKN045 BKN070 20/17 Q1013 RMK 1CU017 5SC045 7AC070 A2993
ROAH 211430Z 10006KT 8000 RA FEW017 BKN050 BKN070 20/17 Q1013 RMK 1CU017 5SC050 7AC070 A2993
ROAH 211400Z 09006KT 050V120 9999 FEW017 SCT045 BKN090 21/17 Q1013 RMK 1CU017 3SC045 7AC090 A2994
ROAH 211330Z 08007KT 050V120 9999 VCSH FEW017 SCT050 BKN100 21/16 Q1014 RMK 1CU017 4SC050 7AC100 A2995
ROAH 211300Z 09007KT 030V130 9999 VCSH FEW017 SCT030 BKN040 21/16 Q1014 RMK 1CU017 3CU030 6SC040 A2996
ROAH 211230Z 07007KT 030V110 9999 FEW017 SCT030 BKN040 21/16 Q1014 RMK 2CU017 4CU030 6SC040 A2997
ROAH 211200Z 06007KT 9999 -SHRA SCT017 BKN030 BKN040 21/16 Q1015 RMK 3CU017 5CU030 6SC040 A2997
ROAH 211130Z 06007KT 030V130 9999 FEW020 SCT030 BKN140 21/16 Q1014 RMK 2CU020 3CU030 6AC140 A2997
ROAH 211100Z 06008KT 030V090 9999 SCT020 BKN150 21/16 Q1014 RMK 4CU020 6AC150 A2996
ROAH 211030Z 07006KT 040V110 9999 SCT020 BKN120 21/16 Q1014 RMK 4CU020 6AC120 A2997
ROAH 211000Z 08006KT 040V120 9999 FEW020 BKN100 21/15 Q1014 RMK 1CU020 6AC100 A2997
ROAH 210930Z 09006KT 030V140 9999 FEW020 BKN090 21/15 Q1014 RMK 1CU020 6AC090 A2996
ROAH 210900Z 09006KT 050V140 9999 FEW020 BKN100 21/15 Q1014 RMK 1CU020 6AC100 A2996
ROAH 210830Z 09007KT 050V150 9999 FEW020 BKN120 21/15 Q1014 RMK 1CU020 6AC120 A2995
ROAH 210800Z 08007KT 050V120 9999 FEW022 BKN080 21/15 Q1014 RMK 1CU022 6AC080 A2995
ROAH 210730Z 07007KT 040V120 9999 SCT022 BKN090 21/15 Q1014 RMK 3CU022 6AC090 A2996
ROAH 210700Z 08008KT 040V130 9999 SCT022 BKN090 21/15 Q1014 RMK 3CU022 6AC090 A2995
ROAH 210630Z 06010KT 9999 FEW022 BKN110 22/15 Q1014 RMK 2CU022 6AC110 A2995
ROAH 210600Z 06009KT 9999 FEW025 BKN100 21/15 Q1014 RMK 2CU025 6AC100 A2995
ROAH 210530Z 10007KT 040V130 9999 FEW025 BKN100 22/15 Q1014 RMK 1CU025 6AC100 A2995
ROAH 210500Z 07007KT 020V150 9999 FEW025 BKN110 BKN/// 22/14 Q1014
ROAH 210430Z 07008KT 040V100 9999 FEW025 BKN/// 22/14 Q1014
ROAH 210400Z 06008KT 020V100 9999 FEW020 BKN/// 22/15 Q1015